Tuesday, November 13, 2018, 8:01 PM EST
Back to Local

KAQW, N Adams Harriman-and-west

Location: North Adams, MA, United States Lat: 42.7
Local Time: 8:01 PM EST ( 1:01 GMT) Lon: -73.167
Time Zone: US/Eastern Elev: 652 ft

Show me the last for .
Show Decoded

2018-11-13 18:52 METAR KAQW 132352Z AUTO 26018G30KT 10SM BKN017 BKN022 OVC040 03/01 A2993 RMK AO2
                 PK WND 25030/2349 SLPNO 60000 T00280006 10033 20022 53015 =
2018-11-13 18:23 METAR KAQW 132323Z AUTO 26011G16KT 10SM OVC016 03/01 A2992 RMK AO2 T00280011 =
2018-11-13 17:52 METAR KAQW 132252Z AUTO 27007KT 10SM OVC012 03/01 A2991 RMK AO2 UPE14 SLPNO
                 P0000 T00280011 =
2018-11-13 16:52 METAR KAQW 132152Z AUTO 27007KT 10SM UP OVC011 02/02 A2990 RMK AO2 UPB50 SLPNO
                 P0000 T00220017 =
2018-11-13 16:25 METAR KAQW 132125Z AUTO 29008KT 10SM OVC013 02/02 A2991 RMK AO2 T00220017 =
2018-11-13 16:07 METAR KAQW 132107Z AUTO 27013KT 10SM BKN015 OVC022 02/02 A2990 RMK AO2 T00220017
                 =
2018-11-13 16:00 METAR KAQW 132100Z AUTO 27014KT 10SM BKN013 OVC020 03/02 A2989 RMK AO2 T00280017
                 =
2018-11-13 15:52 METAR KAQW 132052Z AUTO 27014KT 10SM FEW009 BKN017 OVC022 03/02 A2988 RMK AO2
                 SLPNO 60000 T00280017 53003 =
2018-11-13 15:46 METAR KAQW 132046Z AUTO 26013G19KT 10SM SCT009 OVC015 03/02 A2988 RMK AO2 =
2018-11-13 14:52 METAR KAQW 131952Z AUTO VRB03KT 10SM OVC006 02/02 A2986 RMK AO2 SLPNO T00220022
                 =
2018-11-13 13:52 METAR KAQW 131852Z AUTO 29005KT 9SM OVC007 03/03 A2986 RMK AO2 UPE1753RAB1753E02
                 CIG 005V010 SLPNO P0000 T00280028 =
2018-11-13 13:42 METAR KAQW 131842Z AUTO 29005KT 10SM BKN007 OVC011 03/03 A2986 RMK AO2
                 UPE1753RAB1753E02 CIG 005V009 P0000 T00280028 =
2018-11-13 13:19 METAR KAQW 131819Z AUTO 27007KT 10SM OVC010 03/03 A2987 RMK AO2
                 UPE1753RAB1753E02 CIG 005V013 P0000 T00330028 =
2018-11-13 13:01 METAR KAQW 131801Z AUTO 25006KT 5SM -RA BR OVC007 03/03 A2987 RMK AO2
                 UPE1753RAB1753 P0000 T00280028 =
2018-11-13 12:52 METAR KAQW 131752Z AUTO 28006KT 2 1/2SM UP BR OVC007 03/03 A2988 RMK AO2
                 RAE48UPB48 SLPNO P0001 60005 T00330028 56023 =
2018-11-13 12:49 METAR KAQW 131749Z AUTO 27008KT 2 1/2SM UP BR BKN007 OVC013 03/03 A2988 RMK AO2
                 RAE48UPB48 P0001 =
2018-11-13 11:52 METAR KAQW 131652Z AUTO 28006KT 7SM -RA BKN008 BKN046 OVC070 03/03 A2988 RMK AO2
                 SLPNO P0004 T00330028 =
2018-11-13 11:35 METAR KAQW 131635Z AUTO 31003KT 3SM -RA BR OVC008 03/03 A2989 RMK AO2 PRESFR
                 P0003 T00330028 =
2018-11-13 11:21 METAR KAQW 131621Z AUTO 29003KT 2 1/2SM -RA BR BKN008 OVC023 03/03 A2991 RMK AO2
                 PRESFR P0003 T00330028 =
2018-11-13 11:07 METAR KAQW 131607Z AUTO VRB03KT 2 1/2SM -RA BR 03/03 A2993 RMK AO2 P0002
                 T00280028 =
2018-11-13 10:52 METAR KAQW 131552Z AUTO 27005KT -RA A2994 RMK AO2 RAB52 SLPNO P0000 =
2018-11-13 09:52 METAR KAQW 131452Z AUTO A2999 RMK AO2 SLPNO 58020 PWINO FZRANO $ =
2018-11-13 08:52 METAR KAQW 131352Z AUTO A3001 RMK AO2 SLPNO PWINO FZRANO $ =
2018-11-13 07:52 METAR KAQW 131252Z AUTO A3004 RMK AO2 SLPNO PWINO FZRANO $ =
2018-11-13 06:52 METAR KAQW 131152Z AUTO A3005 RMK AO2 SLPNO 56043 PWINO FZRANO $ =
2018-11-13 05:52 METAR KAQW 131052Z AUTO A3009 RMK AO2 SLPNO PWINO FZRANO $ =
2018-11-13 04:52 METAR KAQW 130952Z AUTO A3013 RMK AO2 SLPNO PWINO FZRANO $ =
2018-11-13 03:52 METAR KAQW 130852Z AUTO A3018 RMK AO2 SLPNO 58030 PWINO FZRANO $ =
2018-11-13 02:52 METAR KAQW 130752Z AUTO A3022 RMK AO2 SLPNO PWINO FZRANO $ =
2018-11-13 01:52 METAR KAQW 130652Z AUTO A3024 RMK AO2 SLPNO PWINO FZRANO $ =
2018-11-13 00:52 METAR KAQW 130552Z AUTO A3027 RMK AO2 SLPNO 58010 PWINO FZRANO $ =
2018-11-12 23:52 METAR KAQW 130452Z AUTO A3030 RMK AO2 SLPNO PWINO FZRANO $ =
2018-11-12 22:52 METAR KAQW 130352Z AUTO A3029 RMK AO2 SLPNO PWINO FZRANO $ =
2018-11-12 21:52 METAR KAQW 130252Z AUTO A3030 RMK AO2 SLPNO 50000 PWINO FZRANO $ =
2018-11-12 20:52 METAR KAQW 130152Z AUTO A3033 RMK AO2 SLPNO PWINO FZRANO $ =

Support USWX by starting your Amazon purchase here.